»·PEaware :: DCM205 KPSP-KPHX

DCM205 :: KPSP-KPHX

FLIGHT INFORMATION

Flight Status: Arrived
Operator:
DotCom
More flights by this operator :: More flights under this callsign
Pilot: Chris S. (2433)
Aircraft: BOEING 737-700
(B737)
More flights by this aircraft type
Origin: KPSP Palm Springs Intl
United States
Destination: KPHX Phoenix Sky Harbor Intl
United States
More flights between these airports :: More routes between these airports
Route: CATH1 PSP BLH HYDRR1
File this flight plan on PilotEdge
Remarks:
Altitude:
(Current/Filed)
31,000ft
Speed:
(Current/Filed)
480kts
Departed: 26-Jun-20 06:26 PM
Arrived: 26-Jun-20 07:12 PM
Distance/Time
Traveled:
226nm/0:46
Distance/Time
To Go:
Arrived

Flight Plot

Page will automatically refresh every two minutes.


Map Options




Map Legend


Flown Route
Filed Route
Departure Airport
Arrival Airport
Navaid (VOR, NDB)
Fix

Horizontal Profiles

Position Reports

Time Latitude Longitude Heading Altitude Ground
Speed
26-Jun-20 18:08 33.821030 -116.506368 214 490ft 0kts
26-Jun-20 18:09 33.821030 -116.506368 214 490ft 0kts
26-Jun-20 18:10 33.821030 -116.506368 214 490ft 0kts
26-Jun-20 18:11 33.821030 -116.506368 214 490ft 0kts
26-Jun-20 18:12 33.821030 -116.506368 214 490ft 0kts
26-Jun-20 18:13 33.821030 -116.506368 214 490ft 0kts
26-Jun-20 18:14 33.821030 -116.506368 214 490ft 0kts
26-Jun-20 18:15 33.821030 -116.506368 214 490ft 0kts
26-Jun-20 18:16 33.821030 -116.506368 214 490ft 0kts
26-Jun-20 18:17 33.821029 -116.506369 214 490ft 0kts
26-Jun-20 18:18 33.820838 -116.506047 3 490ft 8kts
26-Jun-20 18:19 33.823077 -116.504072 102 490ft 10kts
26-Jun-20 18:20 33.820879 -116.501859 147 490ft 11kts
26-Jun-20 18:21 33.818574 -116.499554 98 490ft 2kts
26-Jun-20 18:22 33.818572 -116.499542 98 490ft 0kts
26-Jun-20 18:23 33.818572 -116.499542 98 490ft 0kts
26-Jun-20 18:24 33.819622 -116.498761 323 490ft 27kts
26-Jun-20 18:25 33.852840 -116.520074 4 2357ft 183kts
26-Jun-20 18:26 33.877836 -116.455406 95 4149ft 263kts
26-Jun-20 18:27 33.847169 -116.375246 119 6955ft 276kts
26-Jun-20 18:28 33.826301 -116.284895 100 9780ft 285kts
26-Jun-20 18:29 33.812720 -116.190559 100 12660ft 290kts
26-Jun-20 18:30 33.796915 -116.082006 100 13798ft 381kts
26-Jun-20 18:31 33.777679 -115.951077 100 17151ft 410kts
26-Jun-20 18:32 33.757090 -115.812176 100 20310ft 435kts
26-Jun-20 18:33 33.735104 -115.665026 99 23132ft 460kts
26-Jun-20 18:34 33.711781 -115.510251 99 25783ft 480kts
26-Jun-20 18:35 33.687339 -115.349494 99 28064ft 499kts
26-Jun-20 18:36 33.662310 -115.186361 99 30504ft 496kts
26-Jun-20 18:37 33.637439 -115.023686 99 30748ft 494kts
26-Jun-20 18:38 33.611895 -114.861501 100 30739ft 494kts
26-Jun-20 18:39 33.585006 -114.700336 103 30740ft 492kts
26-Jun-20 18:40 33.554557 -114.548602 103 30503ft 443kts
26-Jun-20 18:41 33.526940 -114.405946 103 28847ft 433kts
26-Jun-20 18:42 33.499787 -114.267700 104 27118ft 419kts
26-Jun-20 18:43 33.472912 -114.132903 105 25410ft 410kts
26-Jun-20 18:44 33.446887 -114.002710 106 24178ft 403kts
26-Jun-20 18:45 33.420444 -113.871460 107 23203ft 401kts
26-Jun-20 18:46 33.395064 -113.743868 107 21539ft 388kts
26-Jun-20 18:47 33.369880 -113.620185 107 19893ft 377kts
26-Jun-20 18:48 33.345276 -113.500055 107 18260ft 366kts
26-Jun-20 18:49 33.323632 -113.382085 104 16641ft 358kts
26-Jun-20 18:50 33.303770 -113.267047 104 15028ft 349kts
26-Jun-20 18:51 33.286275 -113.153047 102 15040ft 351kts
26-Jun-20 18:52 33.274066 -113.037349 92 14906ft 353kts
26-Jun-20 18:53 33.277997 -112.925003 90 14239ft 332kts
26-Jun-20 18:54 33.280868 -112.815049 88 13621ft 329kts
26-Jun-20 18:55 33.291288 -112.706860 85 13013ft 327kts
26-Jun-20 18:56 33.301638 -112.599114 86 12406ft 325kts
26-Jun-20 18:57 33.311408 -112.492188 86 11802ft 323kts
26-Jun-20 18:58 33.321085 -112.385605 86 11199ft 321kts
26-Jun-20 18:59 33.330775 -112.280927 86 10471ft 319kts
26-Jun-20 19:00 33.339948 -112.178729 86 9694ft 301kts
26-Jun-20 19:01 33.347903 -112.083048 90 8995ft 282kts
26-Jun-20 19:02 33.346356 -111.988417 94 7731ft 281kts
26-Jun-20 19:03 33.345713 -111.899815 92 6976ft 259kts
26-Jun-20 19:04 33.346834 -111.814495 88 5885ft 255kts
26-Jun-20 19:05 33.397231 -111.770458 3 4383ft 242kts
26-Jun-20 19:06 33.438973 -111.805638 293 3490ft 176kts
26-Jun-20 19:07 33.440938 -111.857535 266 3085ft 143kts
26-Jun-20 19:08 33.440743 -111.905474 268 2542ft 147kts
26-Jun-20 19:09 33.440819 -111.954635 271 1767ft 147kts
26-Jun-20 19:10 33.440826 -112.002873 272 1149ft 124kts
26-Jun-20 19:11 33.440470 -112.016693 228 1148ft 7kts
26-Jun-20 19:12 33.439022 -112.015627 90 1148ft 16kts
26-Jun-20 19:13 33.439020 -112.009847 89 1148ft 17kts
26-Jun-20 19:14 33.439005 -112.004626 90 1148ft 14kts
26-Jun-20 19:15 33.439031 -112.000192 89 1148ft 14kts

Navigation Log

Ident Type
Flight plan parsing failed, navigation log unavailable